Time;durP1;ratioP1;P1;durP2;ratioP2;P2;SDS_P1;SDS_P2;PMS_P1;PMS_P2;Temp;Humidity;BMP_temperature;BMP_pressure;BME280_temperature;BME280_humidity;BME280_pressure;Samples;Min_cycle;Max_cycle;Signal;HPM_P1;HPM_P2
2024/01/21 00:02:13;;;;;;;17.67;14.27;;;;;;;1.75;73.95;99918.81;5092157;28;20020;-47
2024/01/21 00:04:38;;;;;;;17.80;14.82;;;;;;;2.12;71.60;99917.84;5094641;28;20081;-46
2024/01/21 00:07:05;;;;;;;17.90;13.82;;;;;;;2.38;69.15;99908.91;5093297;28;20020;-47
2024/01/21 00:09:30;;;;;;;16.75;12.90;;;;;;;2.58;68.00;99907.38;5094556;28;20058;-46
2024/01/21 00:11:56;;;;;;;16.88;12.90;;;;;;;2.73;67.01;99913.13;5094455;28;20405;-46
2024/01/21 00:14:21;;;;;;;12.95;10.85;;;;;;;2.72;66.93;99913.25;5094490;28;20390;-47
2024/01/21 00:16:47;;;;;;;17.08;12.50;;;;;;;2.64;67.55;99923.41;5094430;28;20028;-47
2024/01/21 00:19:13;;;;;;;16.60;12.48;;;;;;;2.40;67.11;99926.94;5093032;28;20032;-46
2024/01/21 00:21:38;;;;;;;15.85;12.20;;;;;;;2.13;67.47;99935.84;5094246;28;20516;-47
2024/01/21 00:24:04;;;;;;;16.52;13.05;;;;;;;2.04;68.27;99936.53;5094321;28;20025;-47
2024/01/21 00:26:30;;;;;;;18.00;13.13;;;;;;;2.06;69.17;99941.59;5092724;28;20048;-46
2024/01/21 00:29:00;;;;;;;16.40;11.45;;;;;;;2.18;69.86;99941.50;5092909;28;20398;-47
2024/01/21 00:31:27;;;;;;;18.02;12.15;;;;;;;2.24;70.48;99945.41;5094074;28;20035;-47
2024/01/21 00:33:53;;;;;;;16.60;12.20;;;;;;;2.37;70.22;99948.72;5094039;28;20072;-46
2024/01/21 00:36:19;;;;;;;16.60;13.20;;;;;;;2.54;70.68;99946.59;5092764;28;20400;-47
2024/01/21 00:38:45;;;;;;;18.52;12.07;;;;;;;2.63;70.87;99952.84;5092663;28;20036;-47
2024/01/21 00:41:14;;;;;;;16.98;12.40;;;;;;;2.57;70.11;99947.16;5093879;28;20031;-47
2024/01/21 00:43:40;;;;;;;15.75;11.05;;;;;;;2.67;70.62;99949.06;5093955;28;20390;-47
2024/01/21 00:46:06;;;;;;;14.90;10.85;;;;;;;2.86;70.59;99951.91;5092484;28;20016;-47
2024/01/21 00:48:33;;;;;;;16.20;11.80;;;;;;;3.05;70.29;99953.03;5092644;28;20103;-47
2024/01/21 00:50:59;;;;;;;16.10;12.88;;;;;;;3.09;69.61;99952.66;5093756;28;20529;-47
2024/01/21 00:53:25;;;;;;;15.35;11.13;;;;;;;2.99;68.63;99951.75;5093688;28;20107;-46
2024/01/21 00:55:50;;;;;;;16.25;11.13;;;;;;;2.78;68.79;99956.84;5093683;28;20522;-47
2024/01/21 00:58:16;;;;;;;18.85;11.75;;;;;;;2.62;68.38;99951.19;5093594;28;20039;-47
2024/01/21 01:00:42;;;;;;;15.35;11.52;;;;;;;2.35;68.54;99953.16;5093336;28;20031;-47
2024/01/21 01:03:07;;;;;;;16.33;12.18;;;;;;;2.30;69.36;99949.28;5092189;28;20046;-47
2024/01/21 01:05:33;;;;;;;18.02;12.02;;;;;;;2.29;69.35;99947.63;5093439;28;20044;-46
2024/01/21 01:07:59;;;;;;;20.20;11.98;;;;;;;2.34;69.42;99948.13;5092116;28;20020;-47
2024/01/21 01:10:25;;;;;;;15.27;12.63;;;;;;;2.33;69.82;99946.47;5092110;28;20028;-46
2024/01/21 01:12:50;;;;;;;20.85;13.55;;;;;;;2.36;71.28;99948.84;5093232;28;20077;-46
2024/01/21 01:15:16;;;;;;;14.90;11.55;;;;;;;2.30;71.03;99957.88;5093373;28;20036;-47
2024/01/21 01:17:42;;;;;;;22.80;11.98;;;;;;;2.24;71.46;99960.13;5093269;28;20035;-47
2024/01/21 01:20:08;;;;;;;25.77;11.25;;;;;;;2.27;71.25;99958.09;5093181;28;20383;-46
2024/01/21 01:22:35;;;;;;;16.10;12.15;;;;;;;2.30;71.67;99960.47;5093068;28;20378;-47
2024/01/21 01:25:00;;;;;;;46.20;33.25;;;;;;;2.34;71.64;99951.53;5092775;28;20036;-47
2024/01/21 01:27:26;;;;;;;16.83;12.55;;;;;;;2.41;71.62;99946.69;5093069;28;20111;-46
2024/01/21 01:29:52;;;;;;;14.48;11.20;;;;;;;2.45;70.21;99942.94;5093068;28;20551;-46
2024/01/21 01:32:17;;;;;;;16.17;11.02;;;;;;;2.95;70.42;99940.78;5091593;28;20036;-47
2024/01/21 01:34:43;;;;;;;22.45;14.30;;;;;;;3.47;69.89;99940.19;5091579;28;20027;-47
2024/01/21 01:37:09;;;;;;;16.42;11.40;;;;;;;3.99;68.64;99944.56;5092851;28;20016;-46
2024/01/21 01:39:35;;;;;;;13.75;11.13;;;;;;;4.34;66.02;99927.78;5092823;28;20057;-47
2024/01/21 01:42:01;;;;;;;12.77;10.65;;;;;;;4.60;64.34;99930.78;5092743;28;20020;-47
2024/01/21 01:44:27;;;;;;;14.63;9.52;;;;;;;5.05;63.43;99933.91;5092758;28;20028;-47
2024/01/21 01:46:53;;;;;;;14.70;13.02;;;;;;;5.29;63.10;99928.34;5092679;28;20517;-47
2024/01/21 01:49:22;;;;;;;13.50;10.45;;;;;;;5.15;67.79;99930.41;5091299;28;20023;-47
2024/01/21 01:51:48;;;;;;;18.23;14.20;;;;;;;4.82;67.45;99931.53;5092614;28;20497;-47
2024/01/21 01:54:17;;;;;;;13.65;10.70;;;;;;;4.60;68.79;99935.16;5092523;28;20103;-47
2024/01/21 01:56:43;;;;;;;12.98;8.88;;;;;;;4.78;69.24;99935.38;5091183;28;20115;-47
2024/01/21 01:59:12;;;;;;;12.07;8.68;;;;;;;5.07;67.66;99937.22;5091179;28;20055;-47
2024/01/21 02:01:38;;;;;;;16.38;12.48;;;;;;;5.25;65.62;99935.63;5092390;28;20013;-47
2024/01/21 02:04:09;;;;;;;42.15;37.92;;;;;;;5.35;63.28;99935.63;5092326;28;20501;-47
2024/01/21 02:06:35;;;;;;;26.27;21.02;;;;;;;5.45;63.49;99926.03;5092357;28;20401;-47
2024/01/21 02:09:01;;;;;;;47.55;42.65;;;;;;;5.55;61.85;99926.03;5091019;28;20020;-47
2024/01/21 02:11:27;;;;;;;26.67;20.80;;;;;;;5.65;61.38;99926.03;5092301;28;20077;-47
2024/01/21 02:13:52;;;;;;;19.23;13.13;;;;;;;5.70;59.59;99927.28;5092254;28;20024;-47
2024/01/21 02:16:18;;;;;;;23.98;14.95;;;;;;;5.56;59.22;99922.47;5090904;28;20059;-47
2024/01/21 02:18:45;;;;;;;20.77;14.82;;;;;;;5.47;59.83;99931.91;5092229;28;20039;-48
2024/01/21 02:21:12;;;;;;;13.65;11.55;;;;;;;5.48;59.34;99924.94;5090742;28;20028;-47
2024/01/21 02:23:38;;;;;;;13.82;10.13;;;;;;;5.32;59.36;99921.09;5092105;28;20021;-47
2024/01/21 02:26:04;;;;;;;16.58;9.95;;;;;;;5.15;59.28;99916.53;5089773;28;20044;-47
2024/01/21 02:28:30;;;;;;;9.90;8.18;;;;;;;5.10;59.56;99926.56;5090729;28;20024;-47
2024/01/21 02:30:55;;;;;;;13.73;9.82;;;;;;;5.06;58.85;99925.19;5092023;28;20024;-47
2024/01/21 02:33:21;;;;;;;11.63;9.38;;;;;;;4.93;58.85;99939.25;5107633;28;20024;-47
2024/01/21 02:35:47;;;;;;;11.07;9.70;;;;;;;4.91;59.48;99941.16;5091969;28;20098;-47
2024/01/21 02:38:13;;;;;;;12.07;9.80;;;;;;;4.87;59.36;99928.53;5073800;28;20517;-47
2024/01/21 02:40:39;;;;;;;13.38;9.48;;;;;;;4.76;59.27;99919.06;5091809;28;20073;-47
2024/01/21 02:43:06;;;;;;;11.90;9.80;;;;;;;4.75;59.51;99925.25;5090679;28;20016;-47
2024/01/21 02:45:33;;;;;;;12.02;10.20;;;;;;;4.65;60.00;99934.75;5090646;28;20016;-47
2024/01/21 02:47:58;;;;;;;12.82;9.50;;;;;;;4.73;59.56;99932.34;5090625;28;20016;-47
2024/01/21 02:50:24;;;;;;;16.30;10.32;;;;;;;4.75;60.61;99933.84;5091673;28;20046;-47
2024/01/21 02:52:50;;;;;;;16.55;10.70;;;;;;;4.78;59.51;99932.75;5091853;28;20028;-47
2024/01/21 02:55:16;;;;;;;13.98;9.57;;;;;;;4.82;59.62;99931.53;5091728;28;20098;-47
2024/01/21 02:57:42;;;;;;;15.15;10.02;;;;;;;4.70;59.13;99936.03;5091679;28;20027;-47
2024/01/21 03:00:08;;;;;;;12.68;8.95;;;;;;;4.60;60.11;99935.97;5090418;28;20020;-47
2024/01/21 03:02:34;;;;;;;12.02;8.65;;;;;;;4.60;60.30;99933.38;5091725;28;20401;-47
2024/01/21 03:05:00;;;;;;;13.82;9.45;;;;;;;4.77;60.08;99942.34;5107411;28;20020;-47
2024/01/21 03:07:25;;;;;;;13.25;8.57;;;;;;;4.92;60.16;99931.56;5091722;28;20027;-47
2024/01/21 03:09:51;;;;;;;13.23;9.60;;;;;;;4.90;59.26;99921.28;5091639;28;20043;-47
2024/01/21 03:12:17;;;;;;;15.10;9.32;;;;;;;4.84;59.22;99919.22;5091616;28;20133;-47
2024/01/21 03:14:43;;;;;;;13.73;9.88;;;;;;;4.80;58.70;99915.25;5091618;28;20021;-47
2024/01/21 03:17:09;;;;;;;13.20;8.85;;;;;;;4.88;59.32;99917.19;5107168;28;20035;-47
2024/01/21 03:19:35;;;;;;;11.75;8.95;;;;;;;4.90;58.83;99925.69;5091587;28;20020;-47
2024/01/21 03:22:00;;;;;;;13.30;10.60;;;;;;;4.82;59.60;99913.34;5091454;28;20504;-47
2024/01/21 03:24:26;;;;;;;11.38;8.10;;;;;;;4.79;59.06;99904.03;5091258;28;20024;-48
2024/01/21 03:26:52;;;;;;;13.25;8.10;;;;;;;4.90;59.94;99910.88;5091487;28;20024;-47
2024/01/21 03:29:18;;;;;;;10.85;8.70;;;;;;;4.98;58.83;99900.63;5091433;28;20505;-47
2024/01/21 03:31:44;;;;;;;10.90;8.35;;;;;;;4.90;58.32;99895.28;5091394;28;20031;-47
2024/01/21 03:34:09;;;;;;;13.50;8.95;;;;;;;4.82;58.52;99907.31;5107090;28;20028;-47
2024/01/21 03:36:35;;;;;;;11.57;8.73;;;;;;;4.83;58.75;99907.19;5091106;28;20375;-47
2024/01/21 03:39:01;;;;;;;11.20;9.05;;;;;;;4.81;59.17;99906.50;5110961;28;20055;-47
2024/01/21 03:41:27;;;;;;;15.25;9.27;;;;;;;4.69;58.48;99897.13;5095297;28;20016;-47
2024/01/21 03:43:52;;;;;;;13.40;8.73;;;;;;;4.44;59.05;99908.81;5095111;28;20474;-47
2024/01/21 03:46:19;;;;;;;11.90;9.02;;;;;;;4.25;59.04;99915.59;5110696;28;20114;-47
2024/01/21 03:48:44;;;;;;;12.80;8.13;;;;;;;4.18;60.18;99909.25;5093741;28;20737;-47
2024/01/21 03:51:10;;;;;;;11.10;8.50;;;;;;;4.23;59.88;99911.47;5110565;28;20020;-47
2024/01/21 03:53:39;;;;;;;15.35;8.98;;;;;;;4.21;60.23;99896.00;5094948;28;20028;-47
2024/01/21 03:56:08;;;;;;;10.63;8.38;;;;;;;3.98;60.36;99893.56;5094833;28;20103;-47
2024/01/21 03:58:34;;;;;;;11.70;8.43;;;;;;;3.89;60.39;99885.72;5093484;28;20111;-47
2024/01/21 04:01:03;;;;;;;11.23;8.35;;;;;;;3.69;62.30;99884.78;5094610;28;20578;-47
2024/01/21 04:03:29;;;;;;;12.43;8.13;;;;;;;3.65;62.64;99889.38;5094688;28;20489;-47
2024/01/21 04:05:55;;;;;;;15.40;9.00;;;;;;;3.59;62.88;99890.72;5094699;28;20095;-46
2024/01/21 04:08:21;;;;;;;9.32;7.45;;;;;;;3.56;64.00;99888.38;5110237;28;20031;-47
2024/01/21 04:10:47;;;;;;;13.85;9.00;;;;;;;3.57;63.88;99884.81;5110264;28;20509;-46
2024/01/21 04:13:13;;;;;;;11.60;9.27;;;;;;;3.59;64.09;99898.50;5094476;28;20024;-47
2024/01/21 04:15:38;;;;;;;15.10;8.18;;;;;;;3.50;63.95;99896.66;5094482;28;20028;-47
2024/01/21 04:18:04;;;;;;;11.60;9.32;;;;;;;3.51;64.29;99908.69;5110132;28;20554;-47
2024/01/21 04:20:30;;;;;;;14.25;8.40;;;;;;;3.67;65.28;99905.66;5094319;28;20571;-47
2024/01/21 04:22:56;;;;;;;11.63;8.48;;;;;;;3.77;64.70;99919.53;5094399;28;20512;-47
2024/01/21 04:25:24;;;;;;;15.65;11.50;;;;;;;3.81;65.24;99917.50;5094046;28;20040;-47
2024/01/21 04:27:50;;;;;;;14.18;9.05;;;;;;;3.96;66.35;99921.44;5094221;28;20024;-47
2024/01/21 04:30:15;;;;;;;11.18;8.10;;;;;;;4.11;65.75;99919.34;5094200;28;20024;-47
2024/01/21 04:32:41;;;;;;;10.88;8.13;;;;;;;4.24;62.86;99915.72;5094039;28;20068;-47
2024/01/21 04:35:07;;;;;;;10.82;7.30;;;;;;;3.94;63.75;99915.56;5094117;28;20102;-47
2024/01/21 04:37:33;;;;;;;11.57;7.65;;;;;;;3.75;65.42;99916.22;5094012;28;20509;-47
2024/01/21 04:39:59;;;;;;;11.88;8.23;;;;;;;3.65;64.43;99907.56;5109731;28;20020;-47
2024/01/21 04:42:26;;;;;;;11.68;7.60;;;;;;;3.42;64.50;99918.97;5093796;28;20027;-47
2024/01/21 04:44:51;;;;;;;10.82;9.45;;;;;;;3.16;64.36;99932.28;5092589;28;20043;-46
2024/01/21 04:47:17;;;;;;;12.60;9.27;;;;;;;2.95;64.79;99934.78;5093841;28;20024;-46
2024/01/21 04:49:43;;;;;;;9.90;7.95;;;;;;;2.90;65.42;99936.94;5108714;28;20035;-47
2024/01/21 04:52:08;;;;;;;14.27;9.25;;;;;;;2.84;64.99;99939.97;5093746;28;20024;-46
2024/01/21 04:54:34;;;;;;;12.43;7.93;;;;;;;2.77;66.42;99935.28;5109409;28;20081;-47
2024/01/21 04:57:00;;;;;;;12.77;7.97;;;;;;;2.99;67.60;99952.56;5109355;28;20020;-47
2024/01/21 04:59:26;;;;;;;10.50;7.13;;;;;;;2.99;66.25;99943.97;5093612;28;20028;-47
2024/01/21 05:01:51;;;;;;;14.07;9.48;;;;;;;2.84;66.39;99938.22;5109156;28;20032;-47
2024/01/21 05:04:17;;;;;;;13.43;10.32;;;;;;;2.71;66.29;99940.94;5093591;28;20036;-47
2024/01/21 05:06:43;;;;;;;15.95;10.73;;;;;;;2.63;66.55;99943.28;5092294;28;20024;-46
2024/01/21 05:09:10;;;;;;;12.25;8.02;;;;;;;2.58;66.91;99943.66;5093455;28;20026;-46
2024/01/21 05:11:37;;;;;;;21.00;17.60;;;;;;;2.53;67.32;99961.31;5093481;28;20107;-46
2024/01/21 05:14:03;;;;;;;10.23;7.38;;;;;;;2.59;67.67;99965.19;5092045;28;20032;-47
2024/01/21 05:16:29;;;;;;;12.68;8.27;;;;;;;2.57;67.65;99951.53;5108964;28;20370;-47
2024/01/21 05:18:56;;;;;;;13.88;8.43;;;;;;;2.68;67.63;99955.91;5093274;28;20490;-46
2024/01/21 05:21:22;;;;;;;10.27;7.65;;;;;;;2.58;67.35;99948.84;5108769;28;20027;-47
2024/01/21 05:23:50;;;;;;;21.38;13.82;;;;;;;2.56;67.49;99945.53;5093176;28;20525;-47
2024/01/21 05:26:16;;;;;;;27.52;15.82;;;;;;;2.44;67.47;99972.38;5091506;28;20047;-47
2024/01/21 05:28:41;;;;;;;12.45;8.35;;;;;;;2.42;67.86;99976.88;5091729;28;20565;-47
2024/01/21 05:31:07;;;;;;;10.70;7.95;;;;;;;2.24;67.88;99981.66;5093002;28;20073;-47
2024/01/21 05:33:34;;;;;;;13.50;7.90;;;;;;;2.18;68.93;99982.94;5092914;28;20043;-47
2024/01/21 05:36:03;;;;;;;19.38;9.95;;;;;;;2.38;69.35;99996.16;5108575;28;20035;-46
2024/01/21 05:38:29;;;;;;;15.07;8.57;;;;;;;2.47;69.00;99992.06;5092852;28;20020;-47
2024/01/21 05:40:54;;;;;;;14.57;9.68;;;;;;;2.43;68.67;99981.09;5092735;28;20055;-47
2024/01/21 05:43:20;;;;;;;43.40;38.75;;;;;;;2.40;69.05;99974.38;5092802;28;20012;-47
2024/01/21 05:45:46;;;;;;;18.00;13.63;;;;;;;2.31;69.20;99990.59;5091416;28;20064;-46
2024/01/21 05:48:12;;;;;;;19.33;12.80;;;;;;;2.27;68.89;99996.94;5092646;28;20024;-47
2024/01/21 05:50:37;;;;;;;14.52;8.20;;;;;;;2.24;69.41;99996.38;5091374;28;20024;-47
2024/01/21 05:53:05;;;;;;;15.10;9.50;;;;;;;2.17;69.53;100001.16;5108277;28;20020;-47
2024/01/21 05:55:32;;;;;;;14.85;8.55;;;;;;;2.32;70.27;100005.22;5092764;28;20473;-47
2024/01/21 05:57:58;;;;;;;11.13;7.50;;;;;;;2.51;69.65;99999.47;5092777;28;20486;-46
2024/01/21 06:00:24;;;;;;;11.98;7.88;;;;;;;2.50;69.39;99999.59;5092607;28;20076;-47
2024/01/21 06:02:51;;;;;;;11.80;7.47;;;;;;;2.54;68.75;99999.25;5092439;28;20020;-46
2024/01/21 06:05:17;;;;;;;10.52;7.10;;;;;;;2.58;68.48;99995.47;5092360;28;20027;-46
2024/01/21 06:07:44;;;;;;;16.25;8.63;;;;;;;2.56;68.44;99999.13;5108051;28;20024;-46
2024/01/21 06:10:11;;;;;;;11.20;6.82;;;;;;;2.51;68.93;99999.47;5092326;28;20024;-46
2024/01/21 06:12:36;;;;;;;10.48;7.40;;;;;;;2.49;68.36;100006.53;5092326;28;20016;-46
2024/01/21 06:15:03;;;;;;;10.05;6.78;;;;;;;2.39;69.14;100011.59;5090931;28;20024;-46
2024/01/21 06:17:29;;;;;;;9.65;5.82;;;;;;;2.37;69.01;100017.81;5107866;28;20016;-47
2024/01/21 06:19:54;;;;;;;9.77;6.47;;;;;;;2.45;69.47;100018.06;5092168;28;20036;-46
2024/01/21 06:22:20;;;;;;;13.93;6.20;;;;;;;2.56;69.26;100009.50;5092091;28;20020;-46
2024/01/21 06:24:46;;;;;;;9.75;6.45;;;;;;;2.67;69.19;99990.53;5092155;28;20040;-47
2024/01/21 06:27:12;;;;;;;8.93;7.32;;;;;;;2.69;68.42;99997.25;5092065;28;20036;-46
2024/01/21 06:29:37;;;;;;;9.00;6.82;;;;;;;2.78;68.22;99987.97;5107802;28;20035;-47
2024/01/21 06:32:03;;;;;;;13.40;7.78;;;;;;;2.74;68.24;99997.72;5092048;28;20057;-46
2024/01/21 06:34:29;;;;;;;11.70;6.15;;;;;;;2.80;69.95;99994.66;5092004;28;20097;-47
2024/01/21 06:36:55;;;;;;;10.77;7.00;;;;;;;2.91;70.31;99995.59;5091957;28;20032;-47
2024/01/21 06:39:21;;;;;;;13.45;6.70;;;;;;;2.87;70.38;99997.59;5091958;28;20524;-47
2024/01/21 06:41:47;;;;;;;13.68;8.30;;;;;;;2.91;70.38;99991.25;5090522;28;20051;-47
2024/01/21 06:44:12;;;;;;;8.82;6.10;;;;;;;3.08;70.91;100004.66;5107556;28;20447;-47
2024/01/21 06:46:38;;;;;;;402.50;26.30;;;;;;;3.24;71.39;100007.72;5091728;28;20028;-47
2024/01/21 06:49:04;;;;;;;12.10;5.60;;;;;;;3.44;71.17;100013.09;5091842;28;20027;-47
2024/01/21 06:51:42;;;;;;;10.45;6.05;;;;;;;3.52;69.24;100023.69;5092019;28;20123;-47
2024/01/21 06:54:08;;;;;;;8.60;5.53;;;;;;;3.57;69.45;100029.34;5091884;28;20394;-47
2024/01/21 06:56:34;;;;;;;10.40;6.70;;;;;;;3.48;68.23;100025.72;5091744;28;20028;-47
2024/01/21 06:59:00;;;;;;;8.40;6.38;;;;;;;3.33;66.99;100019.97;5091756;28;20020;-47
2024/01/21 07:01:25;;;;;;;8.38;5.30;;;;;;;3.37;67.87;100016.19;5091627;28;20409;-46
2024/01/21 07:03:52;;;;;;;11.02;6.68;;;;;;;3.42;65.97;100018.44;5107338;28;20028;-47
2024/01/21 07:06:18;;;;;;;11.90;7.25;;;;;;;3.31;66.10;100028.81;5073553;28;20028;-47
2024/01/21 07:08:43;;;;;;;10.05;6.88;;;;;;;3.22;66.44;100040.75;5091692;28;20040;-47
2024/01/21 07:11:10;;;;;;;13.85;9.98;;;;;;;3.19;66.60;100033.19;5091970;28;20024;-47
2024/01/21 07:13:38;;;;;;;12.80;7.75;;;;;;;3.28;68.59;100035.09;5095687;28;20432;-47
2024/01/21 07:16:04;;;;;;;11.88;6.25;;;;;;;3.37;68.57;100023.97;5095653;28;20509;-46
2024/01/21 07:18:30;;;;;;;13.50;7.10;;;;;;;3.36;68.19;100022.34;5095534;28;20103;-47
2024/01/21 07:20:56;;;;;;;17.50;7.30;;;;;;;3.37;68.07;100034.34;5095684;28;20565;-47
2024/01/21 07:23:21;;;;;;;11.65;6.20;;;;;;;3.48;68.44;100035.25;5095483;28;20024;-47
2024/01/21 07:25:47;;;;;;;13.82;8.45;;;;;;;3.78;69.29;100037.19;5095165;28;20040;-47
2024/01/21 07:28:13;;;;;;;11.65;7.47;;;;;;;4.10;68.70;100029.38;5095396;28;20496;-47
2024/01/21 07:30:39;;;;;;;12.32;6.88;;;;;;;4.33;68.13;100043.09;5094201;28;20117;-47
2024/01/21 07:33:05;;;;;;;12.30;7.40;;;;;;;4.31;65.91;100039.00;5095312;28;20073;-47
2024/01/21 07:35:31;;;;;;;11.68;6.10;;;;;;;4.37;67.21;100046.28;5095248;28;20420;-47
2024/01/21 07:37:57;;;;;;;9.38;6.57;;;;;;;4.46;65.54;100048.09;5095541;28;20024;-47
2024/01/21 07:40:22;;;;;;;11.23;6.90;;;;;;;4.55;64.96;100047.34;5095146;28;20393;-47
2024/01/21 07:42:49;;;;;;;15.18;10.82;;;;;;;4.77;64.75;100053.38;5095101;28;20028;-45
2024/01/21 07:45:15;;;;;;;10.02;8.07;;;;;;;5.11;64.73;100051.31;5095100;28;20016;-45
2024/01/21 07:47:41;;;;;;;21.23;15.38;;;;;;;5.94;63.05;100056.31;5095121;28;20077;-45
2024/01/21 07:50:07;;;;;;;13.65;7.53;;;;;;;6.55;59.58;100081.25;5093719;28;20031;-45
2024/01/21 07:52:33;;;;;;;12.50;5.55;;;;;;;6.80;59.71;100088.50;5110669;28;20131;-47
2024/01/21 07:54:59;;;;;;;7.65;5.40;;;;;;;6.98;59.19;100109.47;5110631;28;20451;-47
2024/01/21 07:57:24;;;;;;;9.13;6.45;;;;;;;6.86;58.26;100115.81;5094958;28;20016;-48
2024/01/21 07:59:50;;;;;;;11.85;9.00;;;;;;;7.06;58.45;100126.19;5110553;28;20409;-47
2024/01/21 08:02:16;;;;;;;14.35;9.35;;;;;;;7.02;56.56;100117.81;5110394;28;20033;-47
2024/01/21 08:04:42;;;;;;;15.40;8.25;;;;;;;6.47;57.51;100128.09;5094759;28;20028;-47
2024/01/21 08:07:08;;;;;;;12.30;8.70;;;;;;;6.01;57.38;100130.38;5110321;28;20038;-48
2024/01/21 08:09:34;;;;;;;31.90;28.67;;;;;;;5.87;58.53;100135.94;5093634;28;20050;-48
2024/01/21 08:12:00;;;;;;;21.77;13.57;;;;;;;5.84;59.57;100126.63;5094611;28;20020;-47
2024/01/21 08:14:26;;;;;;;8.57;6.90;;;;;;;5.99;58.72;100129.69;5093173;28;20081;-47
2024/01/21 08:16:51;;;;;;;12.18;8.32;;;;;;;5.93;59.10;100122.38;5094792;28;20599;-47
2024/01/21 08:19:19;;;;;;;12.65;8.43;;;;;;;5.91;58.85;100119.09;5110174;28;20032;-47
2024/01/21 08:21:46;;;;;;;12.45;7.95;;;;;;;5.78;59.18;100120.16;5094247;28;20016;-47
2024/01/21 08:24:12;;;;;;;13.55;7.97;;;;;;;5.80;58.66;100127.84;5108835;28;20127;-47
2024/01/21 08:26:38;;;;;;;13.10;8.48;;;;;;;5.74;58.41;100107.56;5094116;28;20514;-48
2024/01/21 08:29:04;;;;;;;15.95;8.70;;;;;;;5.47;58.73;100106.34;5094531;28;20044;-48
2024/01/21 08:31:30;;;;;;;15.80;7.53;;;;;;;5.33;59.52;100117.13;5094196;28;20064;-48
2024/01/21 08:33:56;;;;;;;11.23;7.93;;;;;;;5.37;59.59;100116.75;5094209;28;20424;-50
2024/01/21 08:36:22;;;;;;;11.60;7.13;;;;;;;5.48;59.78;100123.66;5094007;28;20024;-50
2024/01/21 08:38:47;;;;;;;10.82;7.20;;;;;;;5.58;59.89;100116.69;5094034;28;20057;-50
2024/01/21 08:41:13;;;;;;;14.68;6.40;;;;;;;5.68;60.16;100124.53;5093974;28;20028;-50
2024/01/21 08:43:39;;;;;;;13.98;8.85;;;;;;;5.84;60.16;100138.84;5109673;28;20023;-50
2024/01/21 08:46:04;;;;;;;16.58;8.85;;;;;;;5.90;59.84;100139.13;5109609;28;20059;-50
2024/01/21 08:48:30;;;;;;;12.65;8.20;;;;;;;6.06;60.04;100141.25;5093915;28;20107;-50
2024/01/21 08:50:56;;;;;;;19.92;11.60;;;;;;;6.26;59.55;100143.84;5109467;28;20085;-50
2024/01/21 08:53:22;;;;;;;21.60;12.45;;;;;;;6.47;59.02;100143.72;5092445;28;20102;-49
2024/01/21 08:55:48;;;;;;;19.52;13.57;;;;;;;6.66;59.11;100140.28;5092460;28;20397;-50
2024/01/21 08:58:14;;;;;;;54.42;49.15;;;;;;;7.02;58.32;100143.09;5093686;28;20027;-50
2024/01/21 09:00:39;;;;;;;24.73;17.83;;;;;;;7.24;57.93;100145.38;5093549;28;20380;-50
2024/01/21 09:03:05;;;;;;;22.95;16.60;;;;;;;7.24;57.87;100142.75;5093584;28;20374;-50
2024/01/21 09:05:31;;;;;;;17.75;12.57;;;;;;;6.97;57.28;100131.28;5093530;28;20035;-50
2024/01/21 09:07:57;;;;;;;16.67;11.23;;;;;;;6.78;58.06;100142.59;5092203;28;20027;-50
2024/01/21 09:10:23;;;;;;;14.80;12.05;;;;;;;6.79;58.35;100140.81;5093653;28;20016;-50
2024/01/21 09:12:48;;;;;;;20.45;15.80;;;;;;;6.83;57.97;100143.97;5093357;28;20510;-50
2024/01/21 09:15:14;;;;;;;16.35;9.50;;;;;;;6.70;57.26;100137.28;5092003;28;20048;-50
2024/01/21 09:17:41;;;;;;;15.15;10.50;;;;;;;6.57;58.27;100131.50;5109012;28;20028;-50
2024/01/21 09:20:07;;;;;;;14.48;10.00;;;;;;;6.60;58.54;100139.06;5093230;28;20127;-50
2024/01/21 09:22:33;;;;;;;79.35;52.40;;;;;;;6.65;59.32;100152.50;5093178;28;20531;-48
2024/01/21 09:24:59;;;;;;;36.78;24.13;;;;;;;6.98;59.20;100160.81;5091498;28;20134;-48
2024/01/21 09:27:24;;;;;;;31.15;23.35;;;;;;;7.53;58.82;100160.13;5093023;28;20070;-48
2024/01/21 09:29:50;;;;;;;56.20;43.63;;;;;;;7.74;57.64;100160.69;5093377;28;20053;-47
2024/01/21 09:32:17;;;;;;;48.50;32.30;;;;;;;7.74;57.66;100163.31;5092904;28;20019;-48
2024/01/21 09:34:43;;;;;;;20.45;11.73;;;;;;;7.73;57.65;100151.22;5092700;28;20046;-48
2024/01/21 09:37:09;;;;;;;20.48;11.13;;;;;;;7.81;57.83;100153.13;5092923;28;20095;-48
2024/01/21 09:39:35;;;;;;;20.48;12.55;;;;;;;7.82;57.43;100161.78;5092933;28;20028;-48
2024/01/21 09:42:07;;;;;;;22.52;9.77;;;;;;;7.62;57.73;100164.47;5092691;28;20028;-48
2024/01/21 09:44:33;;;;;;;16.05;9.05;;;;;;;7.71;58.08;100175.88;5092821;28;20024;-48
2024/01/21 09:47:01;;;;;;;11.90;7.47;;;;;;;7.87;57.77;100168.22;5092764;28;20077;-48
2024/01/21 09:49:28;;;;;;;917.80;602.20;;;;;;;7.88;57.87;100169.84;5092714;28;20397;-48
2024/01/21 09:51:55;;;;;;;1007.72;653.45;;;;;;;8.00;60.46;100154.78;5092575;28;20107;-48
2024/01/21 09:54:22;;;;;;;149.70;93.93;;;;;;;8.09;59.12;100158.28;5092650;28;20032;-48
2024/01/21 09:56:48;;;;;;;135.98;79.82;;;;;;;8.11;59.29;100170.28;5092535;28;20026;-48
2024/01/21 09:59:16;;;;;;;63.20;37.75;;;;;;;8.15;58.34;100161.16;5092774;28;20397;-48
2024/01/21 10:01:42;;;;;;;63.75;40.88;;;;;;;8.07;57.95;100163.69;5091066;28;20028;-48
2024/01/21 10:04:14;;;;;;;21.90;14.07;;;;;;;7.93;57.21;100153.75;5092468;28;20099;-48
2024/01/21 10:06:40;;;;;;;1809.18;937.17;;;;;;;7.92;58.69;100152.06;5092676;28;20190;-48
2024/01/21 10:09:11;;;;;;;603.42;375.80;;;;;;;7.99;58.16;100142.69;5092394;28;20528;-48
2024/01/21 10:11:37;;;;;;;353.85;242.77;;;;;;;7.88;57.79;100132.44;5090992;28;20024;-48
2024/01/21 10:14:03;;;;;;;208.82;142.98;;;;;;;7.83;57.07;100122.44;5090973;28;20043;-48
2024/01/21 10:16:28;;;;;;;114.63;65.80;;;;;;;7.68;57.71;100122.06;5092290;28;20013;-48
2024/01/21 10:18:54;;;;;;;102.18;54.38;;;;;;;7.72;58.08;100122.63;5092253;28;20502;-48
2024/01/21 10:21:20;;;;;;;109.45;64.65;;;;;;;7.83;58.37;100129.41;5092090;28;20020;-48
2024/01/21 10:23:47;;;;;;;108.03;56.33;;;;;;;8.13;58.22;100112.56;5092160;28;20444;-47
2024/01/21 10:26:13;;;;;;;1867.97;964.25;;;;;;;8.40;58.68;100117.72;5091883;28;20100;-48
2024/01/21 10:28:42;;;;;;;933.55;727.67;;;;;;;8.70;59.13;100107.03;5090756;28;20028;-50
2024/01/21 10:31:08;;;;;;;479.67;346.52;;;;;;;9.03;58.01;100081.88;5073889;28;20032;-50
2024/01/21 10:33:34;;;;;;;210.77;142.07;;;;;;;9.31;59.30;100076.44;5092292;28;20389;-50
2024/01/21 10:36:03;;;;;;;104.15;65.50;;;;;;;9.63;57.70;100064.44;5090658;28;20066;-50
2024/01/21 10:38:29;;;;;;;87.38;56.88;;;;;;;9.94;55.23;100062.00;5091929;28;20055;-50
2024/01/21 10:40:56;;;;;;;246.57;214.82;;;;;;;10.41;55.25;100060.59;5092059;28;20455;-50
2024/01/21 10:43:26;;;;;;;117.93;84.88;;;;;;;11.16;54.38;100055.81;5090598;28;20051;-50
2024/01/21 10:45:54;;;;;;;104.88;76.55;;;;;;;12.08;51.67;100043.84;5091291;28;20055;-51
2024/01/21 10:48:21;;;;;;;50.05;31.85;;;;;;;12.92;49.81;100041.09;5091830;28;20440;-50
2024/01/21 10:50:47;;;;;;;50.70;33.03;;;;;;;14.05;48.14;100023.91;5090490;28;20024;-48
2024/01/21 10:53:13;;;;;;;21.42;11.80;;;;;;;15.23;44.38;100033.81;5090412;28;20027;-48
2024/01/21 10:55:42;;;;;;;31.00;22.77;;;;;;;15.55;42.26;100022.56;5091703;28;20028;-48
2024/01/21 10:58:09;;;;;;;53.92;41.58;;;;;;;15.68;41.55;100013.81;5091773;28;20101;-48
2024/01/21 11:00:39;;;;;;;46.88;37.15;;;;;;;15.55;41.13;99992.59;5091479;28;20016;-48
2024/01/21 11:03:30;;;;;;;20.50;9.18;;;;;;;15.18;40.60;100000.84;5091771;28;20542;-48
2024/01/21 11:06:08;;;;;;;24.63;11.90;;;;;;;15.01;44.43;99999.59;5091753;28;20031;-46
2024/01/21 11:08:35;;;;;;;17.65;8.02;;;;;;;14.80;42.78;100000.47;5091720;28;20547;-46
2024/01/21 11:11:02;;;;;;;15.57;8.70;;;;;;;14.51;41.58;99988.31;5091923;28;20027;-46
2024/01/21 11:13:45;;;;;;;23.80;10.80;;;;;;;14.30;42.57;99995.25;5091581;28;20043;-46
2024/01/21 11:16:11;;;;;;;19.23;9.23;;;;;;;14.18;42.19;100016.09;5090255;28;20046;-46
2024/01/21 11:18:37;;;;;;;110.90;99.35;;;;;;;14.18;42.89;100008.19;5091492;28;20028;-46
2024/01/21 11:21:03;;;;;;;110.82;96.70;;;;;;;14.14;41.52;100004.25;5091444;28;20024;-46